Time;durP1;ratioP1;P1;durP2;ratioP2;P2;SDS_P1;SDS_P2;PMS_P1;PMS_P2;Temp;Humidity;BMP_temperature;BMP_pressure;BME280_temperature;BME280_humidity;BME280_pressure;Samples;Min_cycle;Max_cycle;Signal;HPM_P1;HPM_P2
2022/11/02 00:01:41;;;;;;;;;;;;;;;6.37;100.00;97780.63;107663;1269;69175;-71
2022/11/02 00:04:11;;;;;;;;;;;;;;;6.39;100.00;97774.12;107622;1268;69904;-71
2022/11/02 00:06:40;;;;;;;;;;;;;;;6.41;100.00;97774.20;107672;1269;59700;-71
2022/11/02 00:09:10;;;;;;;;;;;;;;;6.41;100.00;97778.20;107638;1268;59674;-70
2022/11/02 00:11:39;;;;;;;;;;;;;;;6.40;100.00;97774.95;107641;1265;72156;-70
2022/11/02 00:14:10;;;;;;;;;;;;;;;6.41;100.00;97770.56;107661;1269;69221;-70
2022/11/02 00:16:41;;;;;;;;;;;;;;;6.41;100.00;97773.33;107676;1269;69356;-70
2022/11/02 00:19:10;;;;;;;;;;;;;;;6.40;100.00;97770.13;107631;1268;59682;-70
2022/11/02 00:21:40;;;;;;;;;;;;;;;6.37;100.00;97768.00;107676;1268;59697;-70
2022/11/02 00:24:10;;;;;;;;;;;;;;;6.35;100.00;97766.88;107656;1268;70565;-70
2022/11/02 00:26:39;;;;;;;;;;;;;;;6.33;100.00;97766.48;107703;1271;68024;-70
2022/11/02 00:29:10;;;;;;;;;;;;;;;6.32;100.00;97765.65;107666;1269;69280;-70
2022/11/02 00:31:39;;;;;;;;;;;;;;;6.32;100.00;97764.08;107667;1268;60150;-70
2022/11/02 00:34:10;;;;;;;;;;;;;;;6.28;100.00;97767.23;107691;1268;59722;-73
2022/11/02 00:36:39;;;;;;;;;;;;;;;6.24;100.00;97765.35;107662;1269;71379;-72
2022/11/02 00:39:09;;;;;;;;;;;;;;;6.23;100.00;97760.54;107651;1268;68489;-71
2022/11/02 00:41:39;;;;;;;;;;;;;;;6.24;100.00;97760.18;107639;1268;69140;-73
2022/11/02 00:44:09;;;;;;;;;;;;;;;6.23;100.00;97756.42;107658;1272;59766;-71
2022/11/02 00:46:39;;;;;;;;;;;;;;;6.22;100.00;97757.66;107670;1268;59777;-72
2022/11/02 00:49:10;;;;;;;;;;;;;;;6.18;100.00;97755.11;107710;1268;70436;-71
2022/11/02 00:51:42;;;;;;;;;;;;;;;6.16;100.00;97756.41;107691;1268;69021;-72
2022/11/02 00:54:14;;;;;;;;;;;;;;;6.15;100.00;97754.56;107652;1268;68621;-70
2022/11/02 00:56:45;;;;;;;;;;;;;;;6.09;100.00;97750.49;107677;1270;59746;-72
2022/11/02 00:59:14;;;;;;;;;;;;;;;6.04;100.00;97753.19;107649;1268;59730;-71
2022/11/02 01:01:46;;;;;;;;;;;;;;;6.02;100.00;97752.11;107650;1269;71816;-71
2022/11/02 01:04:17;;;;;;;;;;;;;;;6.00;100.00;97753.58;107632;1269;68758;-71
2022/11/02 01:06:48;;;;;;;;;;;;;;;5.97;100.00;97753.73;107638;1265;69081;-71
2022/11/02 01:09:17;;;;;;;;;;;;;;;5.96;100.00;97749.63;107654;1265;59764;-71
2022/11/02 01:11:47;;;;;;;;;;;;;;;5.96;100.00;97748.58;107648;1268;59720;-71
2022/11/02 01:14:17;;;;;;;;;;;;;;;5.95;100.00;97746.73;107661;1270;69836;-71
2022/11/02 01:16:47;;;;;;;;;;;;;;;5.94;100.00;97748.33;107670;1269;69727;-71
2022/11/02 01:19:19;;;;;;;;;;;;;;;5.90;100.00;97745.54;107638;1270;68457;-71
2022/11/02 01:21:49;;;;;;;;;;;;;;;5.87;100.00;97741.89;107641;1268;59729;-71
2022/11/02 01:24:18;;;;;;;;;;;;;;;5.87;100.00;97741.02;107651;1269;59700;-72
2022/11/02 01:26:51;;;;;;;;;;;;;;;5.86;100.00;97737.29;107665;1269;72026;-71
2022/11/02 01:29:20;;;;;;;;;;;;;;;5.84;100.00;97739.08;107654;1268;68267;-70
2022/11/02 01:31:52;;;;;;;;;;;;;;;5.85;100.00;97736.42;107638;1264;69691;-70
2022/11/02 01:34:22;;;;;;;;;;;;;;;5.82;100.00;97736.05;107636;1269;60053;-71
2022/11/02 01:36:51;;;;;;;;;;;;;;;5.80;100.00;97733.08;107674;1270;59655;-71
2022/11/02 01:39:21;;;;;;;;;;;;;;;5.77;100.00;97734.40;107628;1269;70564;-71
2022/11/02 01:41:52;;;;;;;;;;;;;;;5.75;100.00;97730.54;107680;1269;69066;-70
2022/11/02 01:44:31;;;;;;;;;;;;;;;5.71;100.00;97728.66;107609;1264;69450;-70
2022/11/02 01:47:04;;;;;;;;;;;;;;;5.66;100.00;97721.66;107652;1270;59728;-71
2022/11/02 01:49:36;;;;;;;;;;;;;;;5.60;100.00;97720.20;107659;1270;59746;-70
2022/11/02 01:52:06;;;;;;;;;;;;;;;5.56;100.00;97717.75;107631;1268;70924;-71
2022/11/02 01:54:43;;;;;;;;;;;;;;;5.56;100.00;97723.30;107662;1269;69108;-70
2022/11/02 01:57:16;;;;;;;;;;;;;;;5.59;100.00;97723.52;107664;1268;69245;-70
2022/11/02 01:59:58;;;;;;;;;;;;;;;5.58;100.00;97723.02;107617;1270;59744;-70
2022/11/02 02:02:28;;;;;;;;;;;;;;;5.58;100.00;97725.95;107653;1270;59723;-70
2022/11/02 02:05:07;;;;;;;;;;;;;;;5.61;100.00;97729.13;107672;1271;71428;-70
2022/11/02 02:07:38;;;;;;;;;;;;;;;5.63;100.00;97728.52;107639;1269;68724;-70
2022/11/02 02:10:09;;;;;;;;;;;;;;;5.60;100.00;97722.23;107489;1272;69157;-70
2022/11/02 02:12:39;;;;;;;;;;;;;;;5.60;100.00;97717.42;107624;1269;59740;-70
2022/11/02 02:15:10;;;;;;;;;;;;;;;5.60;100.00;97713.12;107660;1265;59723;-70
2022/11/02 02:17:53;;;;;;;;;;;;;;;5.60;100.00;97713.61;107639;1268;72024;-70
2022/11/02 02:20:24;;;;;;;;;;;;;;;5.60;100.00;97712.55;107625;1271;69026;-70
2022/11/02 02:23:12;;;;;;;;;;;;;;;5.59;100.00;97712.10;107642;1269;70002;-71
2022/11/02 02:25:53;;;;;;;;;;;;;;;5.57;100.00;97717.22;107635;1270;59770;-70
2022/11/02 02:28:36;;;;;;;;;;;;;;;5.58;100.00;97717.69;107627;1270;59728;-70
2022/11/02 02:31:08;;;;;;;;;;;;;;;5.57;100.00;97717.56;107666;1268;70453;-70
2022/11/02 02:33:40;;;;;;;;;;;;;;;5.57;100.00;97724.48;107681;1269;69182;-73
2022/11/02 02:36:40;;;;;;;;;;;;;;;5.59;100.00;97738.02;107640;1266;68458;-70
2022/11/02 02:39:31;;;;;;;;;;;;;;;5.62;100.00;97752.25;107568;1268;59754;-71
2022/11/02 02:42:10;;;;;;;;;;;;;;;5.61;100.00;97758.02;107600;1273;59683;-72
2022/11/02 02:44:45;;;;;;;;;;;;;;;5.58;100.00;97761.95;107693;1269;70583;-72
2022/11/02 02:47:20;;;;;;;;;;;;;;;5.55;100.00;97762.23;107680;1270;69949;-72
2022/11/02 02:49:52;;;;;;;;;;;;;;;5.50;100.00;97770.81;107650;1271;69130;-72
2022/11/02 02:52:26;;;;;;;;;;;;;;;5.47;100.00;97773.88;107676;1269;59760;-72
2022/11/02 02:54:59;;;;;;;;;;;;;;;5.48;100.00;97774.52;107683;1270;59818;-72
2022/11/02 02:57:31;;;;;;;;;;;;;;;5.48;100.00;97778.30;107660;1268;71506;-73
2022/11/02 03:00:00;;;;;;;;;;;;;;;5.49;100.00;97770.30;107663;1267;68191;-71
2022/11/02 03:02:35;;;;;;;;;;;;;;;5.51;100.00;97770.59;107676;1273;69302;-72
2022/11/02 03:05:21;;;;;;;;;;;;;;;5.53;100.00;97773.92;107644;1269;59754;-72
2022/11/02 03:07:52;;;;;;;;;;;;;;;5.55;100.00;97773.67;107637;1273;59725;-72
2022/11/02 03:10:27;;;;;;;;;;;;;;;5.56;100.00;97776.90;107657;1271;71404;-72
2022/11/02 03:13:05;;;;;;;;;;;;;;;5.58;100.00;97777.16;107673;1269;69219;-71
2022/11/02 03:15:37;;;;;;;;;;;;;;;5.59;100.00;97779.02;107625;1270;69291;-71
2022/11/02 03:18:13;;;;;;;;;;;;;;;5.60;100.00;97779.13;107639;1266;60155;-71
2022/11/02 03:20:57;;;;;;;;;;;;;;;5.62;100.00;97780.06;107685;1270;59772;-71
2022/11/02 03:23:27;;;;;;;;;;;;;;;5.64;100.00;97773.25;107631;1268;71651;-71
2022/11/02 03:26:09;;;;;;;;;;;;;;;5.66;100.00;97776.46;107640;1266;68389;-71
2022/11/02 03:28:42;;;;;;;;;;;;;;;5.67;100.00;97782.27;107642;1269;68560;-71
2022/11/02 03:31:11;;;;;;;;;;;;;;;5.71;100.00;97784.35;107646;1271;59736;-71
2022/11/02 03:33:45;;;;;;;;;;;;;;;5.75;100.00;97783.11;107655;1270;59665;-71
2022/11/02 03:36:18;;;;;;;;;;;;;;;5.77;100.00;97778.86;107658;1271;70772;-72
2022/11/02 03:38:55;;;;;;;;;;;;;;;5.79;100.00;97775.33;107649;1268;69038;-72
2022/11/02 03:41:26;;;;;;;;;;;;;;;5.81;100.00;97774.02;107604;1268;69142;-71
2022/11/02 03:44:02;;;;;;;;;;;;;;;5.82;100.00;97775.30;107598;1269;59710;-71
2022/11/02 03:46:32;;;;;;;;;;;;;;;5.87;100.00;97773.39;107663;1265;59727;-71
2022/11/02 03:49:06;;;;;;;;;;;;;;;5.89;100.00;97771.73;107695;1269;72008;-72
2022/11/02 03:51:39;;;;;;;;;;;;;;;5.91;100.00;97764.86;107629;1265;68482;-72
2022/11/02 03:54:31;;;;;;;;;;;;;;;5.96;100.00;97764.48;107643;1269;70033;-72
2022/11/02 03:57:03;;;;;;;;;;;;;;;5.98;100.00;97764.23;107474;1268;59748;-71
2022/11/02 03:59:38;;;;;;;;;;;;;;;6.00;100.00;97758.56;107664;1269;59751;-72
2022/11/02 04:02:08;;;;;;;;;;;;;;;6.00;100.00;97760.64;107660;1269;71359;-72
2022/11/02 04:04:50;;;;;;;;;;;;;;;6.00;100.00;97757.52;107660;1268;68530;-72
2022/11/02 04:07:24;;;;;;;;;;;;;;;6.02;100.00;97758.30;107562;1271;69882;-71
2022/11/02 04:09:54;;;;;;;;;;;;;;;6.02;100.00;97755.88;107630;1265;59698;-72
2022/11/02 04:15:12;;;;;;;;;;;;;;;6.03;100.00;97755.30;107651;1269;70612;-73
2022/11/02 04:20:30;;;;;;;;;;;;;;;6.05;100.00;97756.77;107646;1268;67507;-74
2022/11/02 04:25:51;;;;;;;;;;;;;;;6.05;100.00;97757.27;107678;1265;59768;-72
2022/11/02 04:28:40;;;;;;;;;;;;;;;6.05;100.00;97757.79;107633;1269;71466;-72
2022/11/02 04:31:11;;;;;;;;;;;;;;;6.03;100.00;97750.80;107657;1268;68442;-72
2022/11/02 04:33:42;;;;;;;;;;;;;;;6.00;100.00;97749.93;107623;1269;69393;-72
2022/11/02 04:36:16;;;;;;;;;;;;;;;5.97;100.00;97754.22;107618;1271;59685;-72
2022/11/02 04:38:49;;;;;;;;;;;;;;;5.95;100.00;97756.75;107585;1271;59730;-72
2022/11/02 04:44:33;;;;;;;;;;;;;;;5.96;100.00;97757.40;107648;1269;69866;-72
2022/11/02 04:47:05;;;;;;;;;;;;;;;5.97;100.00;97772.06;107687;1270;70016;-72
2022/11/02 04:49:35;;;;;;;;;;;;;;;5.99;100.00;97771.59;107632;1271;59751;-72
2022/11/02 04:52:06;;;;;;;;;;;;;;;6.00;100.00;97769.29;107644;1269;59684;-73
2022/11/02 04:54:35;;;;;;;;;;;;;;;6.00;100.00;97777.42;107609;1270;70689;-72
2022/11/02 04:57:05;;;;;;;;;;;;;;;5.98;100.00;97777.88;107690;1269;69172;-72
2022/11/02 04:59:34;;;;;;;;;;;;;;;5.96;100.00;97776.57;107581;1271;68548;-72
2022/11/02 05:02:04;;;;;;;;;;;;;;;5.95;100.00;97775.06;107613;1270;59774;-72
2022/11/02 05:04:33;;;;;;;;;;;;;;;5.96;100.00;97779.36;107646;1269;59765;-73
2022/11/02 05:07:05;;;;;;;;;;;;;;;5.97;100.00;97772.59;107771;1268;72108;-73
2022/11/02 05:09:35;;;;;;;;;;;;;;;5.98;100.00;97770.27;107784;1269;68506;-73
2022/11/02 05:12:05;;;;;;;;;;;;;;;5.99;100.00;97766.44;107630;1269;68271;-73
2022/11/02 05:14:35;;;;;;;;;;;;;;;5.99;100.00;97771.08;107481;1270;59730;-73
2022/11/02 05:17:03;;;;;;;;;;;;;;;6.00;100.00;97767.05;107648;1269;59722;-73
2022/11/02 05:19:32;;;;;;;;;;;;;;;6.01;100.00;97770.29;107620;1270;70562;-73
2022/11/02 05:22:02;;;;;;;;;;;;;;;6.01;100.00;97770.65;107629;1269;68667;-73
2022/11/02 05:24:31;;;;;;;;;;;;;;;6.02;100.00;97772.52;107810;1269;69287;-73
2022/11/02 05:27:00;;;;;;;;;;;;;;;6.03;100.00;97772.30;107689;1270;59777;-74
2022/11/02 05:29:30;;;;;;;;;;;;;;;6.03;100.00;97773.69;107733;1269;59714;-73
2022/11/02 05:32:00;;;;;;;;;;;;;;;6.03;100.00;97777.64;107744;1268;70652;-74
2022/11/02 05:34:29;;;;;;;;;;;;;;;6.03;100.00;97787.48;107700;1271;68945;-73
2022/11/02 05:36:59;;;;;;;;;;;;;;;6.03;100.00;97785.73;107663;1267;68536;-74
2022/11/02 05:39:28;;;;;;;;;;;;;;;6.05;100.00;97782.04;107674;1270;59704;-72
2022/11/02 05:41:58;;;;;;;;;;;;;;;6.06;100.00;97786.13;107642;1270;59675;-73
2022/11/02 05:44:27;;;;;;;;;;;;;;;6.06;100.00;97790.64;107761;1270;71435;-73
2022/11/02 05:46:56;;;;;;;;;;;;;;;6.03;100.00;97792.36;107705;1270;69817;-73
2022/11/02 05:49:25;;;;;;;;;;;;;;;6.06;100.00;97793.39;107669;1270;69306;-73
2022/11/02 05:51:55;;;;;;;;;;;;;;;6.10;100.00;97803.41;107751;1269;59813;-73
2022/11/02 05:54:24;;;;;;;;;;;;;;;6.12;100.00;97804.90;107639;1269;59738;-74
2022/11/02 05:56:53;;;;;;;;;;;;;;;6.13;100.00;97811.25;107680;1269;70626;-73
2022/11/02 05:59:21;;;;;;;;;;;;;;;6.10;100.00;97815.89;107638;1268;69237;-73
2022/11/02 06:01:50;;;;;;;;;;;;;;;5.97;100.00;97815.50;107592;1270;69223;-72
2022/11/02 06:04:19;;;;;;;;;;;;;;;6.00;100.00;97821.69;107597;1269;59767;-72
2022/11/02 06:06:47;;;;;;;;;;;;;;;6.03;100.00;97821.26;107670;1268;59783;-73
2022/11/02 06:09:16;;;;;;;;;;;;;;;6.05;100.00;97825.79;107658;1270;70583;-73
2022/11/02 06:11:45;;;;;;;;;;;;;;;6.09;100.00;97830.77;107667;1268;69297;-72
2022/11/02 06:14:13;;;;;;;;;;;;;;;6.13;100.00;97832.15;107619;1270;70242;-72
2022/11/02 06:16:42;;;;;;;;;;;;;;;6.17;100.00;97835.46;107639;1270;60023;-73
2022/11/02 06:19:11;;;;;;;;;;;;;;;6.22;100.00;97837.60;107619;1270;59753;-73
2022/11/02 06:21:44;;;;;;;;;;;;;;;6.28;100.00;97843.05;107639;1268;71170;-73
2022/11/02 06:24:15;;;;;;;;;;;;;;;6.33;100.00;97845.58;107623;1269;69943;-73
2022/11/02 06:26:45;;;;;;;;;;;;;;;6.39;100.00;97848.05;107622;1266;69652;-73
2022/11/02 06:29:14;;;;;;;;;;;;;;;6.44;100.00;97851.27;107630;1268;59723;-73
2022/11/02 06:31:42;;;;;;;;;;;;;;;6.48;100.00;97851.23;107605;1267;59750;-73
2022/11/02 06:34:12;;;;;;;;;;;;;;;6.54;100.00;97856.50;107675;1267;70573;-73
2022/11/02 06:36:40;;;;;;;;;;;;;;;6.59;100.00;97854.84;107639;1269;69856;-75
2022/11/02 06:39:09;;;;;;;;;;;;;;;6.62;100.00;97852.63;107609;1270;69020;-73
2022/11/02 06:41:37;;;;;;;;;;;;;;;6.63;100.00;97857.95;107605;1269;59808;-74
2022/11/02 06:44:06;;;;;;;;;;;;;;;6.65;100.00;97860.94;107621;1268;59763;-73
2022/11/02 06:46:35;;;;;;;;;;;;;;;6.72;100.00;97861.14;107656;1269;71427;-73
2022/11/02 06:49:03;;;;;;;;;;;;;;;6.76;100.00;97862.69;107636;1269;68835;-73
2022/11/02 06:51:32;;;;;;;;;;;;;;;6.80;100.00;97868.34;107604;1268;69377;-73
2022/11/02 06:54:00;;;;;;;;;;;;;;;6.84;100.00;97875.59;107610;1269;59777;-73
2022/11/02 06:56:35;;;;;;;;;;;;;;;6.88;100.00;97875.04;107617;1270;59726;-73
2022/11/02 06:59:03;;;;;;;;;;;;;;;6.92;100.00;97871.73;107642;1270;71063;-73
2022/11/02 07:01:32;;;;;;;;;;;;;;;6.95;100.00;97870.88;107651;1268;68815;-73
2022/11/02 07:04:01;;;;;;;;;;;;;;;6.95;100.00;97868.50;107639;1268;69265;-73
2022/11/02 07:06:29;;;;;;;;;;;;;;;6.93;100.00;97871.52;107655;1269;59745;-74
2022/11/02 07:08:58;;;;;;;;;;;;;;;6.97;100.00;97871.65;107633;1270;59768;-73
2022/11/02 07:11:29;;;;;;;;;;;;;;;6.92;100.00;97875.36;107680;1268;72023;-73
2022/11/02 07:13:57;;;;;;;;;;;;;;;6.93;100.00;97879.52;107626;1270;70014;-73
2022/11/02 07:16:26;;;;;;;;;;;;;;;6.94;100.00;97882.05;107628;1266;70172;-73
2022/11/02 07:18:54;;;;;;;;;;;;;;;6.97;100.00;97881.36;107632;1270;59820;-73
2022/11/02 07:21:23;;;;;;;;;;;;;;;7.01;100.00;97880.64;107677;1268;60016;-73
2022/11/02 07:23:51;;;;;;;;;;;;;;;7.06;100.00;97878.30;107655;1270;71425;-73
2022/11/02 07:26:20;;;;;;;;;;;;;;;7.12;100.00;97876.44;107612;1269;69128;-73
2022/11/02 07:28:49;;;;;;;;;;;;;;;7.16;100.00;97883.15;107204;1269;69167;-73
2022/11/02 07:31:26;;;;;;;;;;;;;;;7.24;100.00;97879.79;107633;1270;59706;-74
2022/11/02 07:33:54;;;;;;;;;;;;;;;7.29;100.00;97881.41;107657;1269;59660;-74
2022/11/02 07:36:23;;;;;;;;;;;;;;;7.26;100.00;97883.52;107641;1270;71424;-74
2022/11/02 07:38:51;;;;;;;;;;;;;;;7.20;100.00;97883.83;107621;1269;68751;-74
2022/11/02 07:41:19;;;;;;;;;;;;;;;7.12;100.00;97883.54;107612;1266;69891;-73
2022/11/02 07:43:48;;;;;;;;;;;;;;;7.17;100.00;97880.16;107609;1264;59796;-73
2022/11/02 07:46:40;;;;;;;;;;;;;;;7.26;100.00;97881.64;107649;1269;59775;-74
2022/11/02 07:49:09;;;;;;;;;;;;;;;7.26;100.00;97879.53;107606;1268;72051;-74
2022/11/02 07:51:38;;;;;;;;;;;;;;;7.33;100.00;97880.38;107633;1266;69895;-74
2022/11/02 07:54:07;;;;;;;;;;;;;;;7.39;100.00;97880.06;107641;1269;69476;-74
2022/11/02 07:56:35;;;;;;;;;;;;;;;7.45;100.00;97879.55;107681;1270;59841;-74
2022/11/02 07:59:04;;;;;;;;;;;;;;;7.49;100.00;97875.91;107671;1266;59733;-74
2022/11/02 08:01:32;;;;;;;;;;;;;;;7.48;100.00;97878.19;107655;1266;72148;-76
2022/11/02 08:04:02;;;;;;;;;;;;;;;7.52;100.00;97877.45;107688;1268;69649;-74
2022/11/02 08:06:30;;;;;;;;;;;;;;;7.51;100.00;97873.86;107752;1265;68562;-74
2022/11/02 08:08:59;;;;;;;;;;;;;;;7.61;100.00;97875.59;107692;1267;59761;-76
2022/11/02 08:11:47;;;;;;;;;;;;;;;7.59;100.00;97875.20;107725;1268;59724;-76
2022/11/02 08:14:16;;;;;;;;;;;;;;;7.57;100.00;97873.20;107725;1268;71260;-75
2022/11/02 08:16:46;;;;;;;;;;;;;;;7.42;100.00;97874.39;107705;1266;69330;-75
2022/11/02 08:19:15;;;;;;;;;;;;;;;7.46;100.00;97874.98;107673;1260;70323;-75
2022/11/02 08:21:44;;;;;;;;;;;;;;;7.51;100.00;97876.31;107638;1266;59708;-75
2022/11/02 08:24:12;;;;;;;;;;;;;;;7.46;100.00;97881.41;107642;1266;59699;-75
2022/11/02 08:26:43;;;;;;;;;;;;;;;7.53;100.00;97880.89;107631;1266;71350;-75
2022/11/02 08:29:13;;;;;;;;;;;;;;;7.54;100.00;97879.13;107744;1270;69365;-75
2022/11/02 08:31:42;;;;;;;;;;;;;;;7.60;100.00;97880.13;107634;1269;69153;-75
2022/11/02 08:34:10;;;;;;;;;;;;;;;7.67;100.00;97877.70;107768;1269;59724;-76
2022/11/02 08:36:39;;;;;;;;;;;;;;;7.64;100.00;97880.79;107759;1268;59698;-75
2022/11/02 08:39:08;;;;;;;;;;;;;;;7.69;100.00;97877.44;107779;1270;71378;-75
2022/11/02 08:41:42;;;;;;;;;;;;;;;7.79;100.00;97879.00;107627;1268;68489;-75
2022/11/02 08:44:11;;;;;;;;;;;;;;;7.89;100.00;97883.95;107666;1268;69446;-75
2022/11/02 08:46:40;;;;;;;;;;;;;;;8.01;100.00;97884.92;107814;1270;59756;-75
2022/11/02 08:49:08;;;;;;;;;;;;;;;8.03;100.00;97888.96;107669;1268;59783;-75
2022/11/02 08:51:37;;;;;;;;;;;;;;;8.09;100.00;97892.58;108048;1268;70778;-75
2022/11/02 08:54:06;;;;;;;;;;;;;;;8.09;100.00;97891.55;107599;1270;69033;-75
2022/11/02 08:56:35;;;;;;;;;;;;;;;8.19;100.00;97894.28;107675;1268;69184;-75
2022/11/02 08:59:03;;;;;;;;;;;;;;;8.28;100.00;97893.27;107630;1266;60196;-76
2022/11/02 09:01:31;;;;;;;;;;;;;;;8.36;100.00;97894.39;107643;1267;59671;-76
2022/11/02 09:04:01;;;;;;;;;;;;;;;8.45;100.00;97897.05;107634;1268;70605;-76
2022/11/02 09:06:29;;;;;;;;;;;;;;;8.53;100.00;97898.33;107659;1269;69026;-75
2022/11/02 09:08:59;;;;;;;;;;;;;;;8.59;100.00;97901.11;107629;1269;68641;-74
2022/11/02 09:11:28;;;;;;;;;;;;;;;8.63;99.71;97900.55;107672;1264;59702;-74
2022/11/02 09:13:57;;;;;;;;;;;;;;;8.58;98.72;97904.81;107671;1269;59722;-75
2022/11/02 09:16:26;;;;;;;;;;;;;;;8.57;99.26;97902.98;107691;1269;71425;-74
2022/11/02 09:18:55;;;;;;;;;;;;;;;8.55;99.03;97905.17;107647;1269;69017;-74
2022/11/02 09:21:23;;;;;;;;;;;;;;;8.59;98.72;97901.80;107652;1265;69913;-74
2022/11/02 09:23:52;;;;;;;;;;;;;;;8.59;98.14;97895.18;107616;1269;59785;-74
2022/11/02 09:26:21;;;;;;;;;;;;;;;8.65;98.40;97894.68;107654;1269;59735;-74
2022/11/02 09:28:50;;;;;;;;;;;;;;;8.71;98.51;97890.02;107674;1265;71356;-75
2022/11/02 09:31:18;;;;;;;;;;;;;;;8.75;97.61;97889.47;107629;1266;70005;-76
2022/11/02 09:33:47;;;;;;;;;;;;;;;8.78;96.91;97884.91;107699;1268;68339;-76
2022/11/02 09:36:15;;;;;;;;;;;;;;;8.89;97.36;97886.34;107750;1269;59703;-73
2022/11/02 09:38:44;;;;;;;;;;;;;;;8.86;95.60;97877.48;107827;1268;59764;-73
2022/11/02 09:41:33;;;;;;;;;;;;;;;8.90;95.51;97878.63;107732;1268;71631;-72
2022/11/02 09:44:09;;;;;;;;;;;;;;;9.03;95.24;97875.80;107814;1264;69537;-72
2022/11/02 09:46:39;;;;;;;;;;;;;;;9.13;94.98;97872.23;107736;1269;69250;-72
2022/11/02 09:49:15;;;;;;;;;;;;;;;9.28;94.79;97873.95;107807;1269;59705;-72
2022/11/02 09:51:46;;;;;;;;;;;;;;;9.31;93.35;97879.33;107685;1269;59706;-73
2022/11/02 09:54:18;;;;;;;;;;;;;;;9.24;93.14;97880.67;107622;1266;71592;-72
2022/11/02 09:56:48;;;;;;;;;;;;;;;9.22;93.43;97888.44;107675;1265;69141;-73
2022/11/02 09:59:19;;;;;;;;;;;;;;;9.09;93.99;97889.32;107611;1269;69143;-72
2022/11/02 10:01:47;;;;;;;;;;;;;;;8.89;95.16;97890.34;107644;1269;59771;-72
2022/11/02 10:04:19;;;;;;;;;;;;;;;8.82;95.81;97881.18;107644;1270;59717;-72
2022/11/02 10:06:54;;;;;;;;;;;;;;;8.80;96.88;97880.99;107635;1268;71808;-71
2022/11/02 10:09:27;;;;;;;;;;;;;;;8.89;97.69;97883.55;107649;1268;69021;-72
2022/11/02 10:11:58;;;;;;;;;;;;;;;8.95;97.02;97879.40;107623;1264;70037;-72
2022/11/02 10:14:32;;;;;;;;;;;;;;;9.02;97.61;97869.75;107641;1269;59780;-72
2022/11/02 10:17:09;;;;;;;;;;;;;;;9.02;96.35;97874.27;107635;1268;59708;-72
2022/11/02 10:19:39;;;;;;;;;;;;;;;8.94;96.26;97879.61;107658;1266;71641;-71
2022/11/02 10:22:10;;;;;;;;;;;;;;;8.87;96.82;97884.72;107657;1270;69467;-72
2022/11/02 10:24:42;;;;;;;;;;;;;;;8.88;97.89;97882.43;107624;1270;69122;-71
2022/11/02 10:27:15;;;;;;;;;;;;;;;8.96;98.06;97877.77;107641;1269;59738;-71
2022/11/02 10:29:51;;;;;;;;;;;;;;;9.07;98.09;97873.27;107647;1269;59765;-71
2022/11/02 10:32:20;;;;;;;;;;;;;;;9.20;97.61;97870.27;107671;1266;71817;-72
2022/11/02 10:34:49;;;;;;;;;;;;;;;9.30;97.62;97870.36;107665;1266;69119;-72
2022/11/02 10:37:51;;;;;;;;;;;;;;;9.30;97.08;97866.36;107634;1264;69927;-72
2022/11/02 10:40:38;;;;;;;;;;;;;;;9.39;96.07;97867.39;107660;1269;59663;-71
2022/11/02 10:43:15;;;;;;;;;;;;;;;9.46;96.31;97863.28;107653;1269;59749;-71
2022/11/02 10:46:03;;;;;;;;;;;;;;;9.54;95.58;97862.64;107641;1266;70595;-71
2022/11/02 10:48:38;;;;;;;;;;;;;;;9.41;95.90;97866.52;107695;1268;69713;-72
2022/11/02 10:51:11;;;;;;;;;;;;;;;9.38;96.58;97869.50;107633;1269;68446;-72
2022/11/02 10:53:47;;;;;;;;;;;;;;;9.35;96.91;97869.51;107690;1266;59790;-72
2022/11/02 10:56:18;;;;;;;;;;;;;;;9.36;96.84;97867.73;107715;1267;59741;-71
2022/11/02 10:58:50;;;;;;;;;;;;;;;9.44;96.90;97863.26;107647;1269;71997;-71
2022/11/02 11:01:18;;;;;;;;;;;;;;;9.45;96.43;97862.45;107677;1268;68392;-71
2022/11/02 11:03:58;;;;;;;;;;;;;;;9.41;96.74;97860.46;107628;1268;69378;-71
2022/11/02 11:06:28;;;;;;;;;;;;;;;9.53;96.81;97856.41;107656;1269;59853;-71
2022/11/02 11:08:58;;;;;;;;;;;;;;;9.59;96.80;97855.20;107683;1269;59761;-71
2022/11/02 11:11:37;;;;;;;;;;;;;;;9.69;96.92;97855.11;107639;1269;70863;-71
2022/11/02 11:14:07;;;;;;;;;;;;;;;9.80;96.40;97851.79;107634;1265;69834;-71
2022/11/02 11:16:58;;;;;;;;;;;;;;;9.93;96.25;97851.99;107620;1269;68626;-71
2022/11/02 11:19:49;;;;;;;;;;;;;;;9.95;95.40;97848.23;107625;1269;59783;-71
2022/11/02 11:22:25;;;;;;;;;;;;;;;10.00;95.65;97841.69;107639;1269;59717;-71
2022/11/02 11:25:21;;;;;;;;;;;;;;;10.05;95.37;97843.42;107625;1269;72383;-71
2022/11/02 11:27:56;;;;;;;;;;;;;;;10.07;94.86;97845.72;107660;1266;70043;-71
2022/11/02 11:30:32;;;;;;;;;;;;;;;10.04;95.40;97841.95;107655;1268;68314;-71
2022/11/02 11:33:21;;;;;;;;;;;;;;;10.03;95.57;97844.45;107619;1270;59745;-71
2022/11/02 11:35:51;;;;;;;;;;;;;;;10.02;96.59;97845.36;107660;1266;59681;-71
2022/11/02 11:38:25;;;;;;;;;;;;;;;10.02;96.72;97848.86;107669;1269;70430;-71
2022/11/02 11:40:56;;;;;;;;;;;;;;;10.03;97.33;97846.35;107614;1266;69202;-71
2022/11/02 11:43:27;;;;;;;;;;;;;;;10.01;97.25;97846.64;107652;1268;69682;-71
2022/11/02 11:45:58;;;;;;;;;;;;;;;10.02;97.26;97854.05;107630;1268;59804;-72
2022/11/02 11:48:52;;;;;;;;;;;;;;;10.04;97.92;97850.10;107570;1270;59728;-72
2022/11/02 11:51:26;;;;;;;;;;;;;;;10.05;97.82;97845.84;107675;1266;71095;-71
2022/11/02 11:54:14;;;;;;;;;;;;;;;9.96;98.72;97847.16;107683;1269;69161;-71
2022/11/02 11:56:45;;;;;;;;;;;;;;;9.95;99.08;97844.42;107667;1266;68437;-71
2022/11/02 11:59:43;;;;;;;;;;;;;;;9.99;98.50;97842.45;107648;1266;59790;-71
2022/11/02 12:02:21;;;;;;;;;;;;;;;10.01;98.30;97837.22;107695;1266;60144;-70
2022/11/02 12:04:51;;;;;;;;;;;;;;;10.03;98.29;97833.95;107652;1268;71628;-71
2022/11/02 12:07:31;;;;;;;;;;;;;;;10.07;98.15;97831.31;107677;1264;69172;-70
2022/11/02 12:10:09;;;;;;;;;;;;;;;10.11;97.90;97832.58;107623;1269;68799;-70
2022/11/02 12:12:47;;;;;;;;;;;;;;;10.15;97.27;97827.77;107614;1270;59763;-70
2022/11/02 12:15:19;;;;;;;;;;;;;;;10.17;97.37;97826.43;107673;1269;59708;-70
2022/11/02 12:18:06;;;;;;;;;;;;;;;10.16;97.63;97825.80;107621;1269;70429;-70
2022/11/02 12:20:35;;;;;;;;;;;;;;;10.19;97.53;97822.45;107645;1268;68635;-70
2022/11/02 12:23:14;;;;;;;;;;;;;;;10.23;97.11;97815.63;107634;1264;69285;-70
2022/11/02 12:25:42;;;;;;;;;;;;;;;10.26;96.93;97814.77;107619;1269;59735;-71
2022/11/02 12:28:22;;;;;;;;;;;;;;;10.29;96.22;97811.44;107688;1269;59690;-70
2022/11/02 12:31:03;;;;;;;;;;;;;;;10.28;95.55;97807.66;107641;1269;70709;-72
2022/11/02 12:33:34;;;;;;;;;;;;;;;10.27;94.99;97796.23;107673;1267;68354;-70
2022/11/02 12:36:06;;;;;;;;;;;;;;;10.20;94.94;97797.34;107638;1269;68724;-72
2022/11/02 12:38:40;;;;;;;;;;;;;;;10.13;96.31;97793.59;107658;1264;59709;-71
2022/11/02 12:41:16;;;;;;;;;;;;;;;10.14;95.90;97795.29;107642;1268;59703;-72
2022/11/02 12:43:45;;;;;;;;;;;;;;;10.15;96.74;97800.31;107664;1266;70455;-70
2022/11/02 12:46:33;;;;;;;;;;;;;;;10.15;98.27;97803.06;107631;1266;68182;-72
2022/11/02 12:49:14;;;;;;;;;;;;;;;10.15;98.52;97799.07;107596;1269;68744;-71
2022/11/02 12:51:48;;;;;;;;;;;;;;;10.13;98.46;97796.56;107550;1270;59720;-70
2022/11/02 12:54:21;;;;;;;;;;;;;;;10.16;98.00;97796.19;107688;1266;59736;-70
2022/11/02 12:56:51;;;;;;;;;;;;;;;10.19;98.07;97797.38;107660;1264;71371;-69
2022/11/02 12:59:23;;;;;;;;;;;;;;;10.20;97.85;97800.96;107606;1266;68372;-70
2022/11/02 13:01:58;;;;;;;;;;;;;;;10.23;97.91;97804.69;107583;1270;69253;-71
2022/11/02 13:04:31;;;;;;;;;;;;;;;10.24;98.13;97805.98;107646;1266;59709;-70
2022/11/02 13:07:11;;;;;;;;;;;;;;;10.27;98.08;97806.33;107562;1271;59680;-71
2022/11/02 13:09:59;;;;;;;;;;;;;;;10.30;98.14;97805.63;107655;1270;71458;-71
2022/11/02 13:12:30;;;;;;;;;;;;;;;10.28;97.73;97809.60;107605;1267;69480;-70
2022/11/02 13:15:00;;;;;;;;;;;;;;;10.25;97.63;97811.34;107629;1270;67492;-70
2022/11/02 13:17:42;;;;;;;;;;;;;;;10.22;97.53;97810.69;107606;1270;59802;-70